Fargo, ND

7:48 AM CDT on October 24, 2014 (GMT -0500)
Hector International | Change Station
CLOSE
Current Station
Airport
Location: Fargo,
Elevation: 899 ft
Nearby Weather Stations

Elev 899 ft 46.91 °N, 96.81 °W | Updated 55 minutes ago

Clear
Clear
45 °F
Feels Like 42 °F
N
6
Wind Variable Wind from South

Today
High -- | Low -- °F
--% Chance of Precip.
Yesterday
High -- | Low -- °F
Precip. -- in
7:58 AM 6:24 PM
New Moon, 0% visible
Pressure 29.81 in
Visibility 10.0 miles
Clouds Clear
Windchill 42 °F
Dew Point 40 °F
Humidity 82%
Rainfall 0.00 in
Snow Depth Not available.
UV 0 out of 12
Pollen 2.00 out of 12
Air Quality Not available.
Flu Activity Local Activity
METAR KFAR 241153Z 17005KT 10SM CLR 07/04 A2980 RMK AO2 SLP094 T00720044 10122 20072 53000

More Conditions Fewer Conditions

Pressure 29.81 in
Visibility 10.0 miles
Clouds Clear
Windchill 42 °F
Dew Point 40 °F
Humidity 82%
Rainfall 0.00 in
Snow Depth Not available.
UV 0 out of 12
Pollen 2.00 out of 12
Air Quality Not available.
Flu Activity Local Activity
METAR KFAR 241153Z 17005KT 10SM CLR 07/04 A2980 RMK AO2 SLP094 T00720044 10122 20072 53000

More Conditions Fewer Conditions

10-Day Weather Forecast

Almanac

Astronomy

Oct. 24, 2014 Rise Set
Actual Time 7:58 AM CDT 6:24 PM CDT
Civil Twilight 7:26 AM CDT 6:55 PM CDT
Nautical Twilight 6:51 AM CDT 7:30 PM CDT
Astronomical Twilight 6:16 AM CDT 8:05 PM CDT
Moon 8:40 AM CDT 7:01 PM CDT
Length of Visible Light 11h 28m
Length of Day
10h 25m
Tomorrow will be 3m 8s shorter.
New Moon, 0% of the Moon is Illuminated
Today
New Moon
Oct 30
First Quarter
Nov 6
Full
Nov 14
Last Quarter
Nov 22
New

Today's Extremes

State Highs State Lows

Community

WunderPhotos

Upload Photos

1,764,544 photos uploaded!

Nearby

Snow Depth

Station Depth Elevation
No new snow has been reported.

Earthquake Activity

City Distance Mag. Time & Date
No recent earthquake activity has been reported nearby.
Minimum magnitude displayed is 2.5.

Coastal Water Temperatures

Place Temperature
No Stations Reporting

Nearby Weather Stations